SHMÚ vydal meteorologické výstrahy na Wind Display warnings

HYDROLOGICAL WARNING Level 2 Display warnings

METAR

Aeronautical MET Report METAR

METAR description (Slovak)

22.02.2017 - 19:30 UTC

METAR LZIB 221930Z 21009KT CAVOK 09/06 Q1008=
METAR LZKZ 221930Z 21011KT 9999 SCT044 07/05 Q1005=
METAR LZPP 221930Z 22008KT 9999 SCT045 OVC080 10/06 Q1007=
METAR LZSL 221930Z 21008KT 190V270 9999 OVC031 08/06 Q1006=
METAR LZTT 221930Z 24016KT 9999 -RA FEW010 BKN025 05/04 Q1002=
METAR LZZI 221930Z 28006KT 9000 OVC027 07/06 Q1005=

22.02.2017 - 19:00 UTC

METAR LZIB 221900Z 20008KT 9999 FEW042 BKN085 10/06 Q1008 NOSIG=
METAR LZKZ 221900Z 23013KT 9999 SCT048 BKN080 06/04 Q1005=
METAR LZPP 221900Z 23011KT 9999 SCT045 OVC080 11/05 Q1007=
METAR LZSL 221900Z 16005KT 130V230 9999 -RA FEW006 OVC033 08/06
Q1006=
METAR LZTT 221900Z 22014KT 9999 -RA FEW013 SCT020 BKN032 05/04
Q1003=
METAR LZZI 221900Z 29006KT 8000 OVC028 07/06 Q1005=

22.02.2017 - 19:00 UTC

METAR LZMC 221900Z 21008KT CAVOK 10/05 Q1008=
METAR LZPW 221900Z 19010KT 0400 FG OVC002 05/04 Q1004=

 

 

skok na menu ↑


skok na začiatok stránky ↑